createdAt,value
2022-09-21T00:00:28.589Z,2.10
2022-09-21T00:03:31.218Z,2.20
2022-09-21T00:06:35.867Z,2.30
2022-09-21T00:09:38.536Z,2.20
2022-09-21T00:12:42.008Z,2.00
2022-09-21T00:15:44.634Z,2.40
2022-09-21T00:18:48.512Z,2.40
2022-09-21T00:21:55.401Z,2.20
2022-09-21T00:24:58.985Z,2.10
2022-09-21T00:28:02.173Z,2.50
2022-09-21T00:31:07.549Z,2.37
2022-09-21T00:34:10.438Z,2.50
2022-09-21T00:37:14.460Z,2.07
2022-09-21T00:40:17.392Z,2.30
2022-09-21T00:43:20.620Z,2.20
2022-09-21T00:46:28.817Z,2.27
2022-09-21T00:49:34.525Z,2.40
2022-09-21T00:52:43.011Z,2.40
2022-09-21T00:55:51.873Z,2.63
2022-09-21T00:58:55.731Z,3.70
2022-09-21T01:02:00.043Z,4.87
2022-09-21T01:05:04.415Z,6.77
2022-09-21T01:08:12.338Z,5.13
2022-09-21T01:11:28.693Z,4.33
2022-09-21T01:14:58.083Z,4.97
2022-09-21T01:18:10.799Z,4.37
2022-09-21T01:21:25.217Z,3.80
2022-09-21T01:24:51.182Z,4.67
2022-09-21T01:28:05.319Z,3.63
2022-09-21T01:31:15.292Z,3.60
2022-09-21T01:34:26.818Z,3.20
2022-09-21T01:37:36.480Z,2.50
2022-09-21T01:40:42.395Z,2.10
2022-09-21T01:43:50.555Z,2.20
2022-09-21T01:46:56.663Z,3.00
2022-09-21T01:50:03.506Z,3.37
2022-09-21T01:53:11.275Z,3.57
2022-09-21T01:56:19.788Z,2.83
2022-09-21T01:59:27.776Z,2.90
2022-09-21T02:02:38.474Z,2.80
2022-09-21T02:05:42.980Z,2.70
2022-09-21T02:08:46.773Z,2.37
2022-09-21T02:11:49.733Z,2.20
2022-09-21T02:14:55.600Z,2.53
2022-09-21T02:18:05.692Z,2.43
2022-09-21T02:21:17.387Z,2.87
2022-09-21T02:24:31.974Z,2.30
2022-09-21T02:27:44.207Z,2.50
2022-09-21T02:30:55.417Z,2.47
2022-09-21T02:34:04.599Z,3.40
2022-09-21T02:37:12.852Z,3.13
2022-09-21T02:40:26.648Z,2.80
2022-09-21T02:43:35.241Z,2.50
2022-09-21T02:46:42.033Z,2.40
2022-09-21T02:49:53.607Z,2.20
2022-09-21T02:52:57.399Z,2.20
2022-09-21T02:56:03.902Z,2.17
2022-09-21T02:59:08.033Z,2.13
2022-09-21T03:02:12.473Z,2.50
2022-09-21T03:05:16.938Z,2.50
2022-09-21T03:08:20.242Z,2.10
2022-09-21T03:11:22.947Z,2.27
2022-09-21T03:14:26.142Z,2.10
2022-09-21T03:17:28.806Z,2.20
2022-09-21T03:20:33.464Z,2.50
2022-09-21T03:23:36.464Z,2.60
2022-09-21T03:26:39.520Z,2.40
2022-09-21T03:29:42.515Z,2.40
2022-09-21T03:32:45.347Z,2.03
2022-09-21T03:35:50.706Z,2.57
2022-09-21T03:38:53.363Z,2.37
2022-09-21T03:41:57.250Z,2.40
2022-09-21T03:45:00.351Z,2.47
2022-09-21T03:48:03.266Z,2.23
2022-09-21T03:51:07.382Z,2.00
2022-09-21T03:54:10.593Z,2.00
2022-09-21T03:57:13.563Z,1.93
2022-09-21T04:00:16.816Z,2.33
2022-09-21T04:03:20.807Z,2.67
2022-09-21T04:06:25.104Z,2.07
2022-09-21T04:09:27.971Z,2.80
2022-09-21T04:12:31.282Z,2.47
2022-09-21T04:15:34.094Z,2.50
2022-09-21T04:18:37.458Z,2.40
2022-09-21T04:21:41.845Z,3.37
2022-09-21T04:24:44.822Z,2.30
2022-09-21T04:27:47.896Z,2.10
2022-09-21T04:30:54.296Z,2.10
2022-09-21T04:33:58.758Z,2.30
2022-09-21T04:37:02.862Z,2.20
2022-09-21T04:40:07.153Z,2.20
2022-09-21T04:43:10.123Z,2.00
2022-09-21T04:46:15.035Z,1.90
2022-09-21T04:49:17.697Z,2.20
2022-09-21T04:52:22.001Z,2.13
2022-09-21T04:55:25.015Z,2.73
2022-09-21T04:58:27.837Z,2.30
2022-09-21T05:01:30.554Z,2.40
2022-09-21T05:04:33.505Z,2.50
2022-09-21T05:07:37.467Z,2.50
2022-09-21T05:10:39.365Z,2.37
2022-09-21T05:13:42.056Z,2.60
2022-09-21T05:16:45.102Z,2.20
2022-09-21T05:19:47.903Z,2.37
2022-09-21T05:22:52.176Z,2.27
2022-09-21T05:25:54.891Z,2.00
2022-09-21T05:28:58.337Z,2.13
2022-09-21T05:32:08.771Z,2.33
2022-09-21T05:35:19.406Z,3.17
2022-09-21T05:38:24.386Z,2.00
2022-09-21T05:41:27.621Z,2.00
2022-09-21T05:44:30.815Z,2.00
2022-09-21T05:47:40.222Z,2.27
2022-09-21T05:50:50.863Z,2.10
2022-09-21T05:54:02.746Z,2.23
2022-09-21T05:57:12.511Z,2.07
2022-09-21T06:00:19.239Z,1.93
2022-09-21T06:03:29.445Z,1.70
2022-09-21T06:06:32.370Z,1.90
2022-09-21T06:09:40.037Z,1.63
2022-09-21T06:12:45.725Z,1.70
2022-09-21T06:15:48.615Z,1.50
2022-09-21T06:18:51.294Z,1.83
2022-09-21T06:21:53.915Z,5.43
2022-09-21T06:24:57.986Z,2.13
2022-09-21T06:28:04.374Z,1.80
2022-09-21T06:31:07.055Z,2.00
2022-09-21T06:34:10.048Z,1.83
2022-09-21T06:37:12.768Z,1.90
2022-09-21T06:40:17.616Z,2.30
2022-09-21T06:43:20.799Z,2.97
2022-09-21T06:46:23.644Z,2.90
2022-09-21T06:49:28.912Z,2.87
2022-09-21T06:52:31.539Z,2.87
2022-09-21T06:55:35.861Z,3.03
2022-09-21T06:58:39.082Z,2.43
2022-09-21T07:01:41.794Z,3.30
2022-09-21T07:04:44.906Z,2.80
2022-09-21T07:07:47.667Z,2.90
2022-09-21T07:10:51.839Z,3.10
2022-09-21T07:13:55.292Z,2.97
2022-09-21T07:16:57.975Z,4.37
2022-09-21T07:20:01.941Z,2.13
2022-09-21T07:23:11.342Z,2.40
2022-09-21T07:26:16.278Z,2.27
2022-09-21T07:29:18.955Z,2.77
2022-09-21T07:32:22.301Z,1.90
2022-09-21T07:35:24.977Z,2.47
2022-09-21T07:38:28.068Z,3.70
2022-09-21T07:41:32.254Z,2.07
2022-09-21T07:44:35.310Z,2.47
2022-09-21T07:47:37.945Z,1.63
2022-09-21T07:50:40.777Z,2.07
2022-09-21T07:53:45.466Z,2.47
2022-09-21T07:57:09.480Z,2.43
2022-09-21T08:00:12.474Z,2.70
2022-09-21T08:03:15.122Z,2.27
2022-09-21T08:06:17.968Z,1.10
2022-09-21T08:09:20.717Z,3.07
2022-09-21T08:12:24.884Z,3.10
2022-09-21T08:15:47.684Z,3.53
2022-09-21T08:18:51.724Z,3.07
2022-09-21T08:21:57.585Z,3.07
2022-09-21T08:25:01.118Z,3.30
2022-09-21T08:28:09.606Z,1.27
2022-09-21T08:31:12.577Z,2.00
2022-09-21T08:34:16.257Z,3.33
2022-09-21T08:37:19.448Z,0.80
2022-09-21T08:40:22.436Z,1.77
2022-09-21T08:43:32.869Z,2.00
2022-09-21T08:46:38.088Z,1.37
2022-09-21T08:49:44.155Z,1.37
2022-09-21T08:52:47.952Z,1.50
2022-09-21T08:55:50.710Z,2.70
2022-09-21T08:58:54.754Z,2.10
2022-09-21T09:02:05.162Z,3.00
2022-09-21T09:05:23.881Z,3.17
2022-09-21T09:09:00.328Z,2.30
2022-09-21T09:12:23.472Z,2.47
2022-09-21T09:15:49.937Z,2.57
2022-09-21T09:18:54.478Z,1.87
2022-09-21T09:21:57.539Z,1.47
2022-09-21T09:25:05.345Z,1.67
2022-09-21T09:28:21.480Z,1.30
2022-09-21T09:31:30.549Z,0.87
2022-09-21T09:34:37.105Z,1.00
2022-09-21T09:37:42.276Z,1.30
2022-09-21T09:41:02.635Z,1.30
2022-09-21T09:44:17.672Z,1.40
2022-09-21T09:47:32.314Z,1.00
2022-09-21T09:50:37.314Z,1.40
2022-09-21T09:53:40.543Z,1.20
2022-09-21T09:56:43.591Z,1.10
2022-09-21T09:59:54.376Z,1.43
2022-09-21T10:03:01.109Z,1.00
2022-09-21T10:06:03.801Z,1.50
2022-09-21T10:09:21.424Z,1.47
2022-09-21T10:12:27.495Z,1.40
2022-09-21T10:15:30.810Z,1.20
2022-09-21T10:18:39.581Z,1.10
2022-09-21T10:21:47.594Z,1.10
2022-09-21T10:24:54.722Z,1.10
2022-09-21T10:27:57.900Z,0.83
2022-09-21T10:31:23.747Z,1.03
2022-09-21T10:34:30.175Z,0.90
2022-09-21T10:37:35.010Z,0.70
2022-09-21T10:40:39.032Z,0.90
2022-09-21T10:43:44.604Z,0.93
2022-09-21T10:46:48.683Z,1.07
2022-09-21T10:49:55.982Z,0.90
2022-09-21T10:53:12.225Z,0.80
2022-09-21T10:56:18.760Z,1.00
2022-09-21T10:59:25.178Z,0.87
2022-09-21T11:02:36.700Z,0.60
2022-09-21T11:05:45.459Z,0.70
2022-09-21T11:08:56.195Z,0.90
2022-09-21T11:12:05.261Z,0.80
2022-09-21T11:15:18.149Z,0.90
2022-09-21T11:18:25.964Z,1.63
2022-09-21T11:21:37.450Z,2.20
2022-09-21T11:24:50.209Z,1.27
2022-09-21T11:27:57.180Z,4.83
2022-09-21T11:31:21.070Z,4.80
2022-09-21T11:34:39.567Z,3.43
2022-09-21T11:37:52.375Z,3.00
2022-09-21T11:41:14.725Z,1.50
2022-09-21T11:44:29.716Z,1.47
2022-09-21T11:47:47.874Z,2.00
2022-09-21T11:51:09.762Z,1.67
2022-09-21T11:54:37.774Z,0.90
2022-09-21T11:57:51.604Z,0.70
2022-09-21T12:01:12.071Z,0.80
2022-09-21T12:04:38.252Z,1.00
2022-09-21T12:07:58.234Z,0.70
2022-09-21T12:11:13.253Z,2.50
2022-09-21T12:14:23.534Z,2.57
2022-09-21T12:17:42.131Z,0.90
2022-09-21T12:20:50.457Z,0.80
2022-09-21T12:23:55.978Z,0.63
2022-09-21T12:27:11.218Z,0.70
2022-09-21T12:30:16.991Z,0.80
2022-09-21T12:33:26.502Z,0.73
2022-09-21T12:36:37.025Z,0.93
2022-09-21T12:39:48.376Z,0.80
2022-09-21T12:43:02.019Z,0.70
2022-09-21T12:46:09.173Z,0.60
2022-09-21T12:49:16.726Z,0.70
2022-09-21T12:52:23.804Z,0.87
2022-09-21T12:55:37.418Z,0.80
2022-09-21T12:58:51.986Z,0.80
2022-09-21T13:02:12.221Z,0.87
2022-09-21T13:05:23.142Z,0.50
2022-09-21T13:08:29.712Z,0.77
2022-09-21T13:11:33.940Z,0.40
2022-09-21T13:14:44.453Z,0.50
2022-09-21T13:17:47.204Z,0.60
2022-09-21T13:20:52.170Z,0.67
2022-09-21T13:23:58.254Z,0.60
2022-09-21T13:27:05.254Z,0.90
2022-09-21T13:30:32.526Z,0.60
2022-09-21T13:33:42.055Z,0.67
2022-09-21T13:36:44.740Z,0.60
2022-09-21T13:39:52.198Z,0.70
2022-09-21T13:42:54.844Z,0.73
2022-09-21T13:45:59.453Z,0.60
2022-09-21T13:49:07.043Z,0.67
2022-09-21T13:52:30.767Z,0.70
2022-09-21T13:55:35.978Z,0.40
2022-09-21T13:58:45.904Z,0.50
2022-09-21T14:01:51.023Z,0.70
2022-09-21T14:04:55.632Z,0.60
2022-09-21T14:08:02.348Z,0.73
2022-09-21T14:11:09.650Z,0.80
2022-09-21T14:14:22.718Z,0.67
2022-09-21T14:17:38.099Z,0.80
2022-09-21T14:20:42.374Z,0.60
2022-09-21T14:24:24.808Z,0.50
2022-09-21T14:27:31.581Z,0.60
2022-09-21T14:30:36.862Z,0.60
2022-09-21T14:33:47.291Z,0.60
2022-09-21T14:36:53.246Z,0.53
2022-09-21T14:39:57.489Z,0.50
2022-09-21T14:43:03.580Z,0.60
2022-09-21T14:46:32.709Z,0.90
2022-09-21T14:49:48.253Z,0.63
2022-09-21T14:53:08.677Z,0.63
2022-09-21T14:56:24.112Z,0.40
2022-09-21T14:59:40.348Z,0.40
2022-09-21T15:02:45.558Z,0.40
2022-09-21T15:05:56.517Z,0.70
2022-09-21T15:09:38.709Z,0.60
2022-09-21T15:12:55.082Z,0.50
2022-09-21T15:16:12.795Z,0.40
2022-09-21T15:19:22.758Z,0.50
2022-09-21T15:22:27.583Z,0.50
2022-09-21T15:25:34.810Z,0.63
2022-09-21T15:29:05.095Z,0.70
2022-09-21T15:32:03.990Z,0.43
2022-09-21T15:35:22.577Z,0.50
2022-09-21T15:38:30.890Z,0.40
2022-09-21T15:41:43.269Z,0.60
2022-09-21T15:44:48.702Z,0.50
2022-09-21T15:47:52.110Z,0.60
2022-09-21T15:50:58.866Z,0.47
2022-09-21T15:54:09.689Z,0.53
2022-09-21T15:57:29.363Z,0.57
2022-09-21T16:00:35.514Z,0.87
2022-09-21T16:03:39.963Z,0.50
2022-09-21T16:06:46.777Z,1.53
2022-09-21T16:09:51.695Z,0.70
2022-09-21T16:13:02.079Z,0.60
2022-09-21T16:16:05.861Z,0.80
2022-09-21T16:19:09.836Z,0.70
2022-09-21T16:22:13.242Z,0.60
2022-09-21T16:25:32.575Z,0.70
2022-09-21T16:28:38.087Z,0.60
2022-09-21T16:31:41.207Z,0.73
2022-09-21T16:34:45.791Z,0.63
2022-09-21T16:37:49.229Z,1.00
2022-09-21T16:40:54.399Z,0.70
2022-09-21T16:43:57.276Z,0.90
2022-09-21T16:47:02.062Z,0.90
2022-09-21T16:50:12.735Z,0.80
2022-09-21T16:53:15.448Z,0.80
2022-09-21T16:56:19.970Z,0.80
2022-09-21T16:59:23.242Z,0.97
2022-09-21T17:02:25.969Z,0.90
2022-09-21T17:05:29.000Z,0.80
2022-09-21T17:08:32.698Z,1.10
2022-09-21T17:11:36.813Z,1.10
2022-09-21T17:14:43.054Z,1.17
2022-09-21T17:17:49.365Z,1.87
2022-09-21T17:20:52.431Z,2.10
2022-09-21T17:23:55.062Z,1.00
2022-09-21T17:26:59.164Z,1.10
2022-09-21T17:30:03.414Z,0.90
2022-09-21T17:33:06.522Z,0.97
2022-09-21T17:36:13.919Z,1.00
2022-09-21T17:39:16.615Z,1.20
2022-09-21T17:42:25.254Z,1.47
2022-09-21T17:45:38.950Z,0.97
2022-09-21T17:48:42.935Z,1.17
2022-09-21T17:52:03.489Z,1.10
2022-09-21T17:55:08.644Z,0.90
2022-09-21T17:58:39.862Z,0.90
2022-09-21T18:01:42.913Z,1.53
2022-09-21T18:04:47.255Z,1.50
2022-09-21T18:07:51.740Z,1.53
2022-09-21T18:11:06.888Z,1.40
2022-09-21T18:14:21.760Z,1.60
2022-09-21T18:17:40.307Z,1.67
2022-09-21T18:20:53.915Z,2.17
2022-09-21T18:24:19.874Z,2.43
2022-09-21T18:27:24.403Z,2.10
2022-09-21T18:30:29.159Z,4.67
2022-09-21T18:33:45.362Z,8.40
2022-09-21T18:36:57.564Z,8.20
2022-09-21T18:40:11.231Z,3.70
2022-09-21T18:43:27.558Z,2.00
2022-09-21T18:46:40.314Z,1.50
2022-09-21T18:49:54.558Z,2.70
2022-09-21T18:53:03.737Z,4.17
2022-09-21T18:56:08.346Z,5.50
2022-09-21T18:59:13.014Z,5.00
2022-09-21T19:02:20.728Z,3.37
2022-09-21T19:05:24.322Z,2.43
2022-09-21T19:08:37.588Z,1.83
2022-09-21T19:11:46.679Z,1.70
2022-09-21T19:14:58.952Z,1.40
2022-09-21T19:18:15.852Z,1.70
2022-09-21T19:21:31.700Z,4.17
2022-09-21T19:24:46.375Z,5.43
2022-09-21T19:27:55.734Z,6.03
2022-09-21T19:31:04.401Z,4.50
2022-09-21T19:34:15.682Z,2.00
2022-09-21T19:37:18.614Z,11.60
2022-09-21T19:40:23.638Z,11.90
2022-09-21T19:43:31.739Z,8.17
2022-09-21T19:46:40.624Z,4.33
2022-09-21T19:49:49.756Z,4.00
2022-09-21T19:53:13.337Z,3.23
2022-09-21T19:56:35.420Z,8.13
2022-09-21T19:59:44.754Z,12.23
2022-09-21T20:03:02.579Z,3.67
2022-09-21T20:06:15.282Z,2.40
2022-09-21T20:09:25.025Z,2.20
2022-09-21T20:12:36.102Z,1.97
2022-09-21T20:15:44.977Z,2.20
2022-09-21T20:18:55.098Z,2.30
2022-09-21T20:22:04.588Z,2.90
2022-09-21T20:25:16.530Z,7.77
2022-09-21T20:28:20.576Z,6.50
2022-09-21T20:31:25.809Z,7.67
2022-09-21T20:34:28.844Z,11.13
2022-09-21T20:37:32.888Z,12.70
2022-09-21T20:40:35.903Z,4.77
2022-09-21T20:43:38.690Z,13.27
2022-09-21T20:46:41.332Z,10.57
2022-09-21T20:49:44.601Z,8.83
2022-09-21T20:52:49.118Z,3.90
2022-09-21T20:55:56.734Z,3.07
2022-09-21T20:58:59.714Z,8.43
2022-09-21T21:02:02.467Z,4.10
2022-09-21T21:05:05.812Z,3.73
2022-09-21T21:08:10.693Z,3.60
2022-09-21T21:11:14.283Z,3.17
2022-09-21T21:14:17.406Z,2.80
2022-09-21T21:17:20.038Z,4.63
2022-09-21T21:20:23.760Z,4.33
2022-09-21T21:23:28.263Z,3.40
2022-09-21T21:26:50.643Z,3.17
2022-09-21T21:29:55.739Z,3.90
2022-09-21T21:32:58.506Z,3.43
2022-09-21T21:36:06.439Z,2.97
2022-09-21T21:39:11.231Z,2.47
2022-09-21T21:42:13.922Z,3.00
2022-09-21T21:45:17.010Z,3.10
2022-09-21T21:48:20.159Z,2.67
2022-09-21T21:51:23.265Z,3.63
2022-09-21T21:54:27.400Z,2.93
2022-09-21T21:57:30.463Z,3.67
2022-09-21T22:00:33.115Z,3.77
2022-09-21T22:03:36.546Z,3.03
2022-09-21T22:06:40.587Z,3.00
2022-09-21T22:09:44.960Z,3.00
2022-09-21T22:12:47.577Z,2.93
2022-09-21T22:15:50.919Z,3.07
2022-09-21T22:18:54.230Z,6.13
2022-09-21T22:21:57.727Z,6.00
2022-09-21T22:25:02.070Z,6.20
2022-09-21T22:28:05.499Z,5.83
2022-09-21T22:31:11.309Z,6.50
2022-09-21T22:34:14.956Z,6.10
2022-09-21T22:37:17.658Z,4.33
2022-09-21T22:40:22.950Z,6.40
2022-09-21T22:43:26.272Z,3.23
2022-09-21T22:46:30.952Z,2.30
2022-09-21T22:49:34.033Z,2.27
2022-09-21T22:52:36.668Z,1.97
2022-09-21T22:55:41.052Z,3.00
2022-09-21T22:58:47.370Z,2.67
2022-09-21T23:01:50.159Z,2.33
2022-09-21T23:04:53.287Z,2.50
2022-09-21T23:07:57.043Z,2.40
2022-09-21T23:11:09.060Z,2.40
2022-09-21T23:14:13.247Z,2.30
2022-09-21T23:17:15.906Z,2.50
2022-09-21T23:20:19.609Z,2.60
2022-09-21T23:23:22.259Z,2.37
2022-09-21T23:26:27.791Z,2.70
2022-09-21T23:29:30.818Z,2.63
2022-09-21T23:32:33.443Z,2.67
2022-09-21T23:35:36.711Z,2.50
2022-09-21T23:38:39.620Z,2.60
2022-09-21T23:41:44.838Z,2.40
2022-09-21T23:44:47.489Z,2.50
2022-09-21T23:47:50.691Z,2.30
2022-09-21T23:50:53.855Z,2.63
2022-09-21T23:53:57.073Z,2.27
2022-09-21T23:57:01.542Z,2.30
